createdAt,value
2019-04-20T00:00:37.165Z,22.50
2019-04-20T00:03:03.839Z,22.00
2019-04-20T00:05:30.866Z,20.73
2019-04-20T00:08:00.674Z,22.27
2019-04-20T00:10:27.257Z,21.63
2019-04-20T00:13:06.824Z,23.00
2019-04-20T00:15:21.724Z,21.90
2019-04-20T00:17:54.233Z,22.63
2019-04-20T00:20:20.776Z,23.50
2019-04-20T00:22:50.134Z,22.57
2019-04-20T00:25:19.134Z,24.07
2019-04-20T00:28:04.441Z,25.90
2019-04-20T00:30:34.016Z,25.03
2019-04-20T00:32:55.589Z,25.40
2019-04-20T00:35:10.486Z,24.23
2019-04-20T00:37:37.984Z,23.43
2019-04-20T00:40:05.680Z,24.87
2019-04-20T00:42:39.078Z,24.07
2019-04-20T00:45:05.851Z,23.27
2019-04-20T00:47:37.344Z,23.20
2019-04-20T00:50:05.731Z,22.80
2019-04-20T00:52:32.900Z,22.93
2019-04-20T00:54:52.062Z,25.33
2019-04-20T00:57:25.895Z,26.83
2019-04-20T01:00:09.358Z,30.90
2019-04-20T01:02:29.911Z,31.00
2019-04-20T01:05:04.131Z,32.87
2019-04-20T01:07:24.142Z,33.23
2019-04-20T01:09:43.375Z,33.57
2019-04-20T01:12:17.280Z,34.80
2019-04-20T01:14:43.373Z,35.53
2019-04-20T01:17:11.663Z,34.27
2019-04-20T01:19:33.722Z,34.57
2019-04-20T01:22:05.247Z,34.03
2019-04-20T01:24:34.787Z,34.00
2019-04-20T01:27:00.423Z,30.53
2019-04-20T01:29:32.422Z,32.17
2019-04-20T01:32:05.666Z,30.70
2019-04-20T01:34:37.856Z,31.77
2019-04-20T01:37:04.408Z,32.53
2019-04-20T01:39:23.695Z,32.73
2019-04-20T01:41:43.886Z,32.17
2019-04-20T01:44:11.136Z,31.63
2019-04-20T01:46:39.110Z,31.47
2019-04-20T01:49:11.614Z,29.63
2019-04-20T01:51:45.958Z,27.63
2019-04-20T01:54:17.694Z,28.00
2019-04-20T01:56:43.691Z,27.23
2019-04-20T01:59:20.187Z,25.13
2019-04-20T02:01:36.192Z,25.13
2019-04-20T02:04:06.406Z,23.20
2019-04-20T02:06:41.882Z,23.00
2019-04-20T02:09:06.793Z,22.53
2019-04-20T02:11:32.774Z,20.83
2019-04-20T02:14:00.261Z,20.63
2019-04-20T02:16:31.753Z,19.90
2019-04-20T02:19:09.041Z,19.47
2019-04-20T02:21:34.044Z,18.87
2019-04-20T02:23:53.335Z,18.90
2019-04-20T02:26:16.003Z,18.37
2019-04-20T02:29:05.700Z,20.77
2019-04-20T02:34:19.852Z,19.07
2019-04-20T02:36:51.615Z,19.03
2019-04-20T02:44:14.358Z,19.37
2019-04-20T02:46:41.395Z,18.10
2019-04-20T02:49:10.149Z,20.97
2019-04-20T02:51:35.402Z,18.53
2019-04-20T02:54:13.084Z,18.30
2019-04-20T02:56:32.730Z,17.97
2019-04-20T02:59:02.173Z,17.77
2019-04-20T03:01:16.207Z,17.20
2019-04-20T03:03:32.849Z,17.47
2019-04-20T03:06:08.590Z,17.07
2019-04-20T03:08:38.049Z,16.83
2019-04-20T03:11:17.967Z,18.47
2019-04-20T03:13:39.684Z,17.63
2019-04-20T03:16:06.752Z,19.00
2019-04-20T03:18:37.500Z,18.90
2019-04-20T03:21:09.654Z,18.63
2019-04-20T03:23:37.265Z,20.30
2019-04-20T03:25:59.464Z,18.50
2019-04-20T03:28:32.903Z,17.93
2019-04-20T03:34:03.394Z,18.57
2019-04-20T03:36:07.487Z,16.63
2019-04-20T03:38:19.903Z,17.13
2019-04-20T03:40:46.480Z,17.43
2019-04-20T03:43:01.117Z,17.33
2019-04-20T03:45:35.398Z,16.90
2019-04-20T03:48:07.806Z,16.17
2019-04-20T03:50:46.591Z,17.07
2019-04-20T03:53:12.870Z,16.07
2019-04-20T03:55:39.725Z,15.97
2019-04-20T03:58:14.269Z,15.97
2019-04-20T04:00:43.255Z,17.53
2019-04-20T04:03:20.004Z,17.67
2019-04-20T04:05:36.879Z,17.27
2019-04-20T04:08:03.096Z,17.97
2019-04-20T04:10:30.362Z,16.53
2019-04-20T04:12:51.748Z,16.50
2019-04-20T04:15:19.064Z,17.30
2019-04-20T04:17:47.951Z,16.80
2019-04-20T04:20:17.429Z,17.47
2019-04-20T04:23:02.527Z,17.73
2019-04-20T04:25:20.773Z,20.20
2019-04-20T04:28:01.354Z,19.23
2019-04-20T04:30:30.560Z,20.97
2019-04-20T04:33:32.177Z,21.20
2019-04-20T04:35:27.196Z,20.87
2019-04-20T04:38:02.703Z,21.77
2019-04-20T04:40:42.738Z,22.33
2019-04-20T04:43:00.740Z,22.57
2019-04-20T04:45:11.229Z,21.87
2019-04-20T04:47:35.190Z,22.97
2019-04-20T04:50:09.580Z,22.13
2019-04-20T04:52:38.297Z,23.33
2019-04-20T04:55:11.065Z,23.93
2019-04-20T04:57:26.355Z,22.17
2019-04-20T04:59:53.116Z,21.87
2019-04-20T05:02:22.744Z,24.87
2019-04-20T05:05:10.408Z,21.53
2019-04-20T05:07:35.334Z,22.17
2019-04-20T05:09:50.684Z,22.13
2019-04-20T05:12:21.493Z,22.73
2019-04-20T05:14:56.900Z,22.90
2019-04-20T05:17:33.975Z,22.33
2019-04-20T05:19:57.441Z,22.30
2019-04-20T05:22:32.298Z,24.50
2019-04-20T05:25:02.118Z,23.07
2019-04-20T05:27:30.241Z,22.23
2019-04-20T05:29:39.561Z,22.53
2019-04-20T05:32:14.194Z,22.60
2019-04-20T05:35:02.367Z,22.40
2019-04-20T05:37:27.455Z,21.70
2019-04-20T05:39:51.927Z,22.90
2019-04-20T05:42:27.846Z,22.53
2019-04-20T05:44:50.267Z,24.53
2019-04-20T05:47:18.409Z,22.07
2019-04-20T05:49:45.423Z,23.70
2019-04-20T05:52:24.138Z,24.30
2019-04-20T05:54:47.613Z,24.53
2019-04-20T05:57:14.758Z,24.00
2019-04-20T05:59:48.387Z,24.80
2019-04-20T06:02:11.332Z,24.20
2019-04-20T06:04:48.605Z,23.33
2019-04-20T06:07:09.307Z,23.30
2019-04-20T06:09:33.952Z,23.20
2019-04-20T06:14:17.243Z,22.40
2019-04-20T06:17:04.176Z,22.33
2019-04-20T06:19:31.906Z,21.60
2019-04-20T06:22:04.016Z,19.90
2019-04-20T06:24:39.990Z,21.07
2019-04-20T06:26:59.260Z,22.03
2019-04-20T06:29:22.551Z,20.97
2019-04-20T06:31:59.112Z,20.53
2019-04-20T06:34:42.559Z,20.43
2019-04-20T06:42:08.435Z,21.20
2019-04-20T06:44:35.404Z,21.13
2019-04-20T06:46:58.892Z,20.37
2019-04-20T06:49:27.470Z,21.03
2019-04-20T06:51:55.415Z,22.00
2019-04-20T06:54:10.355Z,22.23
2019-04-20T06:56:49.956Z,22.60
2019-04-20T06:59:27.734Z,23.87
2019-04-20T07:01:58.309Z,23.23
2019-04-20T07:04:34.853Z,23.43
2019-04-20T07:06:51.877Z,21.27
2019-04-20T07:09:18.413Z,22.83
2019-04-20T07:11:42.597Z,21.80
2019-04-20T07:13:54.437Z,23.00
2019-04-20T07:16:36.302Z,24.27
2019-04-20T07:19:09.687Z,22.73
2019-04-20T07:21:52.370Z,22.10
2019-04-20T07:24:11.851Z,23.93
2019-04-20T07:26:37.282Z,25.00
2019-04-20T07:29:06.831Z,25.37
2019-04-20T07:31:32.044Z,25.00
2019-04-20T07:33:56.921Z,24.27
2019-04-20T07:36:32.289Z,24.27
2019-04-20T07:38:55.266Z,24.80
2019-04-20T07:41:33.132Z,25.27
2019-04-20T07:44:01.713Z,23.00
2019-04-20T07:46:35.188Z,24.50
2019-04-20T07:48:42.600Z,24.40
2019-04-20T07:51:04.858Z,23.47
2019-04-20T07:53:38.608Z,23.67
2019-04-20T07:56:14.714Z,25.53
2019-04-20T07:58:31.702Z,23.27
2019-04-20T08:01:18.182Z,23.40
2019-04-20T08:03:39.318Z,24.67
2019-04-20T08:05:58.223Z,23.30
2019-04-20T08:08:33.732Z,22.67
2019-04-20T08:10:58.611Z,23.70
2019-04-20T08:13:42.121Z,21.77
2019-04-20T08:16:00.774Z,22.07
2019-04-20T08:18:32.212Z,22.57
2019-04-20T08:21:00.914Z,22.37
2019-04-20T08:23:38.871Z,23.40
2019-04-20T08:25:47.533Z,23.57
2019-04-20T08:28:01.487Z,22.47
2019-04-20T08:30:46.750Z,22.57
2019-04-20T08:33:17.787Z,22.23
2019-04-20T08:35:52.573Z,23.63
2019-04-20T08:38:52.905Z,23.27
2019-04-20T08:40:43.486Z,23.13
2019-04-20T08:43:20.824Z,21.97
2019-04-20T08:45:41.973Z,22.00
2019-04-20T08:48:12.824Z,20.43
2019-04-20T08:50:36.389Z,21.70
2019-04-20T08:53:14.689Z,20.77
2019-04-20T08:55:33.394Z,20.50
2019-04-20T08:57:44.452Z,22.67
2019-04-20T09:00:11.251Z,21.27
2019-04-20T09:02:41.353Z,21.33
2019-04-20T09:05:18.632Z,22.80
2019-04-20T09:07:50.297Z,22.17
2019-04-20T09:10:32.428Z,22.07
2019-04-20T09:12:50.709Z,21.40
2019-04-20T09:15:05.987Z,21.27
2019-04-20T09:17:39.799Z,20.37
2019-04-20T09:20:12.647Z,20.20
2019-04-20T09:22:46.983Z,21.57
2019-04-20T09:25:42.790Z,21.00
2019-04-20T09:27:45.197Z,19.50
2019-04-20T09:30:18.810Z,21.73
2019-04-20T09:32:51.735Z,21.00
2019-04-20T09:35:26.704Z,20.23
2019-04-20T09:37:53.159Z,21.47
2019-04-20T09:40:27.721Z,21.30
2019-04-20T09:42:37.914Z,21.57
2019-04-20T09:45:07.558Z,21.50
2019-04-20T09:47:40.643Z,23.67
2019-04-20T09:50:22.530Z,22.73
2019-04-20T09:52:52.645Z,22.47
2019-04-20T09:55:14.325Z,22.67
2019-04-20T09:57:54.108Z,23.10
2019-04-20T10:00:19.377Z,22.33
2019-04-20T10:02:37.776Z,21.93
2019-04-20T10:05:05.235Z,21.67
2019-04-20T10:07:34.347Z,23.13
2019-04-20T10:10:00.009Z,22.60
2019-04-20T10:12:26.432Z,22.87
2019-04-20T10:14:53.237Z,21.83
2019-04-20T10:17:20.246Z,23.10
2019-04-20T10:19:48.336Z,22.07
2019-04-20T10:22:14.992Z,22.60
2019-04-20T10:24:42.354Z,23.70
2019-04-20T10:27:08.637Z,21.97
2019-04-20T10:29:35.544Z,23.13
2019-04-20T10:32:07.010Z,24.43
2019-04-20T10:34:30.572Z,23.93
2019-04-20T10:36:57.551Z,23.13
2019-04-20T10:39:26.658Z,23.20
2019-04-20T10:41:57.654Z,23.10
2019-04-20T10:44:21.055Z,22.03
2019-04-20T10:46:47.261Z,22.80
2019-04-20T10:49:13.468Z,22.77
2019-04-20T10:51:40.050Z,23.43
2019-04-20T10:54:06.684Z,24.10
2019-04-20T10:56:33.694Z,23.80
2019-04-20T10:59:01.310Z,23.77
2019-04-20T11:01:27.847Z,23.27
2019-04-20T11:03:54.487Z,23.60
2019-04-20T11:06:20.962Z,24.50
2019-04-20T11:08:48.492Z,25.53
2019-04-20T11:11:23.152Z,25.27
2019-04-20T11:13:43.503Z,26.03
2019-04-20T11:16:10.724Z,26.67
2019-04-20T11:18:37.766Z,27.03
2019-04-20T11:21:04.403Z,28.47
2019-04-20T11:23:32.015Z,26.80
2019-04-20T11:26:00.078Z,28.67
2019-04-20T11:28:26.584Z,27.00
2019-04-20T11:30:53.026Z,28.27
2019-04-20T11:33:20.628Z,28.27
2019-04-20T11:35:48.145Z,29.33
2019-04-20T11:38:17.107Z,27.60
2019-04-20T11:40:42.958Z,27.47
2019-04-20T11:43:09.197Z,28.67
2019-04-20T11:45:36.404Z,28.33
2019-04-20T11:48:03.292Z,30.57
2019-04-20T11:50:29.633Z,29.67
2019-04-20T11:52:57.189Z,28.57
2019-04-20T11:55:24.353Z,28.60
2019-04-20T11:57:51.334Z,28.80
2019-04-20T12:00:23.978Z,28.43
2019-04-20T12:02:54.271Z,28.57
2019-04-20T12:05:32.416Z,30.57
2019-04-20T12:07:53.278Z,28.90
2019-04-20T12:10:23.712Z,30.67
2019-04-20T12:12:51.018Z,30.23
2019-04-20T12:15:16.826Z,31.07
2019-04-20T12:17:43.954Z,31.47
2019-04-20T12:20:10.468Z,32.20
2019-04-20T12:22:36.992Z,30.83
2019-04-20T12:25:05.838Z,32.37
2019-04-20T12:27:32.654Z,33.07
2019-04-20T12:29:59.594Z,32.40
2019-04-20T12:32:28.215Z,32.10
2019-04-20T12:34:54.125Z,32.63
2019-04-20T12:37:20.870Z,31.83
2019-04-20T12:39:47.180Z,34.07
2019-04-20T12:42:14.722Z,34.27
2019-04-20T12:44:41.805Z,34.80
2019-04-20T12:47:08.080Z,34.43
2019-04-20T12:49:35.687Z,34.57
2019-04-20T12:52:05.130Z,34.87
2019-04-20T12:54:29.996Z,34.60
2019-04-20T12:56:56.382Z,33.20
2019-04-20T12:59:23.452Z,33.97
2019-04-20T13:01:51.275Z,33.13
2019-04-20T13:04:18.485Z,32.00
2019-04-20T13:06:44.870Z,33.33
2019-04-20T13:09:12.621Z,33.70
2019-04-20T13:11:49.454Z,34.73
2019-04-20T13:14:14.827Z,32.73
2019-04-20T13:16:41.139Z,33.53
2019-04-20T13:19:08.812Z,33.20
2019-04-20T13:21:36.545Z,32.60
2019-04-20T13:24:04.746Z,30.90
2019-04-20T13:26:31.428Z,32.30
2019-04-20T13:28:57.620Z,31.43
2019-04-20T13:31:24.071Z,30.27
2019-04-20T13:33:51.631Z,30.53
2019-04-20T13:36:18.145Z,29.63
2019-04-20T13:38:44.336Z,29.20
2019-04-20T13:41:11.679Z,31.07
2019-04-20T13:43:37.980Z,29.10
2019-04-20T13:46:04.939Z,29.20
2019-04-20T13:48:31.312Z,28.37
2019-04-20T13:50:58.288Z,27.20
2019-04-20T13:53:25.321Z,26.37
2019-04-20T13:55:51.909Z,26.93
2019-04-20T13:58:20.117Z,27.47
2019-04-20T14:00:50.318Z,26.87
2019-04-20T14:03:18.431Z,28.50
2019-04-20T14:05:45.028Z,30.10
2019-04-20T14:08:11.534Z,29.70
2019-04-20T14:10:37.980Z,27.50
2019-04-20T14:13:11.254Z,30.20
2019-04-20T14:15:33.238Z,30.03
2019-04-20T14:17:59.617Z,28.60
2019-04-20T14:20:27.071Z,28.90
2019-04-20T14:22:54.657Z,26.27
2019-04-20T14:25:22.845Z,26.07
2019-04-20T14:27:49.273Z,25.90
2019-04-20T14:30:15.478Z,25.63
2019-04-20T14:32:42.948Z,23.40
2019-04-20T14:35:09.318Z,26.17
2019-04-20T14:37:36.059Z,25.57
2019-04-20T14:40:06.163Z,25.23
2019-04-20T14:42:40.716Z,24.73
2019-04-20T14:45:01.891Z,24.73
2019-04-20T14:47:28.301Z,25.03
2019-04-20T14:49:55.140Z,24.03
2019-04-20T14:52:23.813Z,24.03
2019-04-20T14:54:50.239Z,23.30
2019-04-20T14:57:17.302Z,22.73
2019-04-20T14:59:45.538Z,23.30
2019-04-20T15:02:15.226Z,22.33
2019-04-20T15:04:43.118Z,23.73
2019-04-20T15:07:10.747Z,21.90
2019-04-20T15:09:38.861Z,21.57
2019-04-20T15:12:06.619Z,20.10
2019-04-20T15:14:34.500Z,18.40
2019-04-20T15:17:00.975Z,18.70
2019-04-20T15:19:29.482Z,18.87
2019-04-20T15:21:57.795Z,17.63
2019-04-20T15:24:24.033Z,18.43
2019-04-20T15:26:52.083Z,17.63
2019-04-20T15:29:18.403Z,17.93
2019-04-20T15:31:45.902Z,18.70
2019-04-20T15:34:12.933Z,18.77
2019-04-20T15:36:40.207Z,18.60
2019-04-20T15:39:07.333Z,18.40
2019-04-20T15:41:33.706Z,18.77
2019-04-20T15:43:59.899Z,18.73
2019-04-20T15:46:27.603Z,18.30
2019-04-20T15:48:53.912Z,18.50
2019-04-20T15:51:21.586Z,17.63
2019-04-20T15:53:49.410Z,18.37
2019-04-20T15:56:16.594Z,17.43
2019-04-20T15:58:44.147Z,17.47
2019-04-20T16:01:10.625Z,17.57
2019-04-20T16:03:39.254Z,17.07
2019-04-20T16:06:07.567Z,16.37
2019-04-20T16:08:36.656Z,16.77
2019-04-20T16:11:04.537Z,15.87
2019-04-20T16:13:37.623Z,14.87
2019-04-20T16:15:59.218Z,14.33
2019-04-20T16:18:25.420Z,14.70
2019-04-20T16:21:00.453Z,14.90
2019-04-20T16:23:20.769Z,14.17
2019-04-20T16:25:49.896Z,14.97
2019-04-20T16:28:17.388Z,15.40
2019-04-20T16:30:43.715Z,14.67
2019-04-20T16:33:10.465Z,14.83
2019-04-20T16:35:36.769Z,14.17
2019-04-20T16:38:02.966Z,16.23
2019-04-20T16:40:31.521Z,16.90
2019-04-20T16:42:58.486Z,16.70
2019-04-20T16:45:25.333Z,16.93
2019-04-20T16:47:52.448Z,17.37
2019-04-20T16:50:19.325Z,19.13
2019-04-20T16:52:46.560Z,18.93
2019-04-20T16:55:12.985Z,18.70
2019-04-20T16:57:39.719Z,19.23
2019-04-20T17:00:07.385Z,18.07
2019-04-20T17:02:34.041Z,19.07
2019-04-20T17:05:00.940Z,18.03
2019-04-20T17:07:29.325Z,18.73
2019-04-20T17:09:55.998Z,18.23
2019-04-20T17:12:23.749Z,17.80
2019-04-20T17:14:51.562Z,15.97
2019-04-20T17:17:17.965Z,17.67
2019-04-20T17:19:44.167Z,16.83
2019-04-20T17:22:11.577Z,17.10
2019-04-20T17:24:38.105Z,17.70
2019-04-20T17:27:06.519Z,17.17
2019-04-20T17:29:35.848Z,16.50
2019-04-20T17:32:05.516Z,15.37
2019-04-20T17:34:49.261Z,16.00
2019-04-20T17:37:00.523Z,16.50
2019-04-20T17:39:37.134Z,16.60
2019-04-20T17:42:12.848Z,16.47
2019-04-20T17:44:35.920Z,14.93
2019-04-20T17:47:00.619Z,14.43
2019-04-20T17:49:31.443Z,15.67
2019-04-20T17:52:12.766Z,15.77
2019-04-20T17:54:17.729Z,16.10
2019-04-20T17:56:44.502Z,15.57
2019-04-20T17:59:12.343Z,16.07
2019-04-20T18:01:53.972Z,15.33
2019-04-20T18:04:46.485Z,15.57
2019-04-20T18:06:50.467Z,15.90
2019-04-20T18:09:34.897Z,15.17
2019-04-20T18:11:42.576Z,17.40
2019-04-20T18:14:24.203Z,17.50
2019-04-20T18:16:51.967Z,17.73
2019-04-20T18:19:09.982Z,16.60
2019-04-20T18:21:32.990Z,18.40
2019-04-20T18:24:00.407Z,17.83
2019-04-20T18:26:48.126Z,18.37
2019-04-20T18:29:15.040Z,18.90
2019-04-20T18:31:25.842Z,19.80
2019-04-20T18:33:54.086Z,19.70
2019-04-20T18:36:27.281Z,20.13
2019-04-20T18:38:54.035Z,20.37
2019-04-20T18:41:31.814Z,21.53
2019-04-20T18:43:50.412Z,21.03
2019-04-20T18:46:29.304Z,21.23
2019-04-20T18:49:03.550Z,22.37
2019-04-20T18:51:09.883Z,21.47
2019-04-20T18:53:42.523Z,22.50
2019-04-20T18:56:04.726Z,21.37
2019-04-20T18:58:33.290Z,23.97
2019-04-20T19:01:00.830Z,23.23
2019-04-20T19:03:33.680Z,23.13
2019-04-20T19:05:55.827Z,22.73
2019-04-20T19:08:30.262Z,23.07
2019-04-20T19:11:01.725Z,23.53
2019-04-20T19:13:26.767Z,22.87
2019-04-20T19:16:04.353Z,23.77
2019-04-20T19:18:38.345Z,23.20
2019-04-20T19:20:50.841Z,23.20
2019-04-20T19:23:17.244Z,23.40
2019-04-20T19:25:44.207Z,22.83
2019-04-20T19:28:14.520Z,22.83
2019-04-20T19:30:47.014Z,23.30
2019-04-20T19:33:22.714Z,23.73
2019-04-20T19:35:46.590Z,23.13
2019-04-20T19:38:14.882Z,22.10
2019-04-20T19:40:45.623Z,26.50
2019-04-20T19:43:13.741Z,24.73
2019-04-20T19:45:46.603Z,26.67
2019-04-20T19:48:12.208Z,26.83
2019-04-20T19:50:49.738Z,25.03
2019-04-20T19:53:16.416Z,25.50
2019-04-20T19:55:40.076Z,27.23
2019-04-20T19:58:01.424Z,25.10
2019-04-20T20:00:20.783Z,26.10
2019-04-20T20:02:47.860Z,25.47
2019-04-20T20:05:16.235Z,24.93
2019-04-20T20:07:46.369Z,24.57
2019-04-20T20:10:10.981Z,24.93
2019-04-20T20:12:41.232Z,24.77
2019-04-20T20:15:13.781Z,23.27
2019-04-20T20:17:57.738Z,24.40
2019-04-20T20:20:28.932Z,24.77
2019-04-20T20:22:40.670Z,24.67
2019-04-20T20:25:01.086Z,23.27
2019-04-20T20:27:32.622Z,22.17
2019-04-20T20:30:08.231Z,22.83
2019-04-20T20:32:39.039Z,21.73
2019-04-20T20:35:01.247Z,20.70
2019-04-20T20:37:26.726Z,18.87
2019-04-20T20:39:59.321Z,17.80
2019-04-20T20:42:29.610Z,17.97
2019-04-20T20:44:52.336Z,16.47
2019-04-20T20:47:39.799Z,17.87
2019-04-20T20:50:04.044Z,16.77
2019-04-20T20:52:30.544Z,15.73
2019-04-20T20:54:49.489Z,15.57
2019-04-20T20:57:11.391Z,13.77
2019-04-20T20:59:42.972Z,13.37
2019-04-20T21:02:06.753Z,13.20
2019-04-20T21:04:29.897Z,14.70
2019-04-20T21:06:56.267Z,14.73
2019-04-20T21:09:25.146Z,17.00
2019-04-20T21:11:58.326Z,17.20
2019-04-20T21:14:21.967Z,17.40
2019-04-20T21:16:53.122Z,18.10
2019-04-20T21:19:28.565Z,20.17
2019-04-20T21:21:50.480Z,19.60
2019-04-20T21:24:16.503Z,21.20
2019-04-20T21:26:44.019Z,21.23
2019-04-20T21:29:10.027Z,22.50
2019-04-20T21:31:36.693Z,22.17
2019-04-20T21:34:10.046Z,21.57
2019-04-20T21:36:31.829Z,23.00
2019-04-20T21:38:59.359Z,22.93
2019-04-20T21:41:26.093Z,22.20
2019-04-20T21:43:54.018Z,23.03
2019-04-20T21:46:20.778Z,21.03
2019-04-20T21:48:59.764Z,19.83
2019-04-20T21:51:30.065Z,19.13
2019-04-20T21:53:44.294Z,17.67
2019-04-20T21:56:12.091Z,19.13
2019-04-20T21:58:44.782Z,17.73
2019-04-20T22:01:16.306Z,17.07
2019-04-20T22:03:36.328Z,17.77
2019-04-20T22:06:04.733Z,18.63
2019-04-20T22:08:32.562Z,17.63
2019-04-20T22:10:59.793Z,17.27
2019-04-20T22:13:32.402Z,16.43
2019-04-20T22:16:03.137Z,17.00
2019-04-20T22:18:27.030Z,15.00
2019-04-20T22:21:06.897Z,14.87
2019-04-20T22:23:43.385Z,15.30
2019-04-20T22:26:05.149Z,16.00
2019-04-20T22:28:20.442Z,15.57
2019-04-20T22:30:48.431Z,17.33
2019-04-20T22:33:23.601Z,15.53
2019-04-20T22:35:53.010Z,15.77
2019-04-20T22:38:22.589Z,17.13
2019-04-20T22:40:49.189Z,16.87
2019-04-20T22:43:17.993Z,18.30
2019-04-20T22:45:50.343Z,19.30
2019-04-20T22:48:15.706Z,19.33
2019-04-20T22:51:03.603Z,18.70
2019-04-20T22:53:26.096Z,18.10
2019-04-20T22:56:01.186Z,20.13
2019-04-20T22:58:23.628Z,21.83
2019-04-20T23:00:43.439Z,22.13
2019-04-20T23:03:02.980Z,22.13
2019-04-20T23:05:29.395Z,24.03
2019-04-20T23:07:56.976Z,23.33
2019-04-20T23:10:29.407Z,24.33
2019-04-20T23:12:55.919Z,24.40
2019-04-20T23:15:20.532Z,22.50
2019-04-20T23:17:50.070Z,21.97
2019-04-20T23:20:22.070Z,20.53
2019-04-20T23:22:46.188Z,19.50
2019-04-20T23:25:13.216Z,19.67
2019-04-20T23:27:41.682Z,18.93
2019-04-20T23:30:12.580Z,19.03
2019-04-20T23:32:36.307Z,18.23
2019-04-20T23:35:09.736Z,18.37
2019-04-20T23:37:36.498Z,17.57
2019-04-20T23:40:02.699Z,16.13
2019-04-20T23:42:33.649Z,16.90
2019-04-20T23:45:02.181Z,17.03
2019-04-20T23:47:32.033Z,17.20
2019-04-20T23:50:16.299Z,16.83
2019-04-20T23:52:49.709Z,17.10
2019-04-20T23:55:03.904Z,15.83
2019-04-20T23:57:25.942Z,18.33
2019-04-20T23:59:53.779Z,18.30
